Time;durP1;ratioP1;P1;durP2;ratioP2;P2;SDS_P1;SDS_P2;PMS_P1;PMS_P2;Temp;Humidity;BMP_temperature;BMP_pressure;BME280_temperature;BME280_humidity;BME280_pressure;Samples;Min_cycle;Max_cycle;Signal;HPM_P1;HPM_P2
2023/11/02 00:04:13;;;;;;;1.77;1.67;;;;;;;11.50;69.08;93990.09;6154799;23;20945;-89
2023/11/02 00:06:58;;;;;;;2.37;1.87;;;;;;;11.48;69.26;93986.19;6160385;23;20245;-89
2023/11/02 00:09:45;;;;;;;1.50;1.40;;;;;;;11.47;69.28;93979.44;6160482;23;20556;-87
2023/11/02 00:12:43;;;;;;;1.80;1.60;;;;;;;11.48;69.32;93970.72;6160871;23;20163;-87
2023/11/02 00:15:27;;;;;;;4.00;1.70;;;;;;;11.50;69.33;93966.13;6157534;23;20178;-89
2023/11/02 00:18:33;;;;;;;2.37;1.90;;;;;;;11.48;69.31;93963.78;6159863;23;20250;-87
2023/11/02 00:21:12;;;;;;;;;;;;;;;;;;;;;
2023/11/02 00:24:03;;;;;;;2.20;2.00;;;;;;;11.33;70.58;93994.31;6139812;23;20221;-87
2023/11/02 00:27:00;;;;;;;2.83;1.77;;;;;;;11.33;71.05;94002.06;6132685;23;20258;-88
2023/11/02 00:29:30;;;;;;;2.77;2.10;;;;;;;11.33;70.76;93987.38;6158568;23;20901;-87
2023/11/02 00:32:09;;;;;;;2.63;2.00;;;;;;;11.34;70.52;93985.59;6161508;23;20383;-88
2023/11/02 00:34:41;;;;;;;3.63;2.00;;;;;;;11.34;70.31;93978.66;6162071;23;20155;-90
2023/11/02 00:37:19;;;;;;;2.03;1.80;;;;;;;11.20;70.75;93999.63;6162035;23;20194;-88
2023/11/02 00:39:57;;;;;;;5.63;2.40;;;;;;;11.19;71.18;94008.38;6161752;23;20186;-90
2023/11/02 00:42:40;;;;;;;4.20;2.27;;;;;;;11.08;71.99;94038.25;6161782;23;20159;-86
2023/11/02 00:45:10;;;;;;;2.47;2.27;;;;;;;11.12;71.88;94023.16;6161920;23;20239;-89
2023/11/02 00:48:01;;;;;;;2.47;2.07;;;;;;;11.06;72.18;94024.78;6161141;23;20258;-87
2023/11/02 00:51:14;;;;;;;2.73;2.00;;;;;;;11.06;72.40;94028.16;6144473;23;20201;-86
2023/11/02 00:53:46;;;;;;;3.07;2.30;;;;;;;11.04;72.20;94022.44;6161910;23;20186;-89
2023/11/02 00:56:19;;;;;;;2.77;2.37;;;;;;;11.04;72.43;94034.53;6161740;23;20206;-88
2023/11/02 00:58:54;;;;;;;3.43;2.27;;;;;;;11.01;72.72;94020.28;6161293;23;20206;-88
2023/11/02 01:01:22;;;;;;;4.37;2.43;;;;;;;11.05;72.87;94028.38;6162019;23;20198;-89
2023/11/02 01:03:51;;;;;;;2.30;2.10;;;;;;;11.05;72.69;94028.38;6161595;23;20175;-86
2023/11/02 01:06:30;;;;;;;4.23;2.37;;;;;;;11.03;72.23;94026.00;6161322;23;20179;-88
2023/11/02 01:09:01;;;;;;;3.10;2.37;;;;;;;10.98;72.55;94013.00;6162882;23;20194;-87
2023/11/02 01:11:55;;;;;;;3.73;2.30;;;;;;;10.91;73.08;94017.44;6163404;23;20269;-87
2023/11/02 01:14:47;;;;;;;2.73;2.37;;;;;;;10.91;72.83;94014.88;6162187;23;20626;-86
2023/11/02 01:17:28;;;;;;;2.10;1.90;;;;;;;10.77;73.26;94016.03;6164359;23;20183;-86
2023/11/02 01:20:11;;;;;;;3.67;2.13;;;;;;;10.67;73.95;94026.03;6163541;23;20190;-89
2023/11/02 01:22:59;;;;;;;3.53;2.30;;;;;;;10.61;74.17;94043.13;6163967;23;20202;-88
2023/11/02 01:25:34;;;;;;;2.47;2.10;;;;;;;10.57;74.27;94025.78;6165231;23;20170;-87
2023/11/02 01:28:09;;;;;;;2.17;1.97;;;;;;;10.32;75.11;94036.91;6162024;23;20189;-88
2023/11/02 01:31:17;;;;;;;2.63;1.80;;;;;;;10.24;75.56;94041.50;6164004;23;20229;-86
2023/11/02 01:33:59;;;;;;;2.13;1.93;;;;;;;10.21;75.74;94036.78;6163291;23;20179;-88
2023/11/02 01:36:46;;;;;;;2.57;2.10;;;;;;;10.12;75.87;94030.31;6163701;23;20179;-85
2023/11/02 01:40:01;;;;;;;1.87;1.67;;;;;;;9.91;76.48;94042.56;6145181;23;20178;-89
2023/11/02 01:45:25;;;;;;;4.27;2.20;;;;;;;9.76;77.69;94057.50;6161535;23;20210;-87
2023/11/02 01:52:10;;;;;;;1.67;1.57;;;;;;;9.57;78.21;94045.59;6163330;23;20202;-88
2023/11/02 01:54:58;;;;;;;2.93;1.63;;;;;;;9.53;78.15;94034.16;6070219;23;20204;-87
2023/11/02 01:57:48;;;;;;;2.17;1.60;;;;;;;9.58;77.70;94013.75;6090039;23;20210;-87
2023/11/02 02:03:54;;;;;;;2.27;1.50;;;;;;;9.57;77.13;93971.88;6160215;23;20179;-86
2023/11/02 02:07:05;;;;;;;1.93;1.73;;;;;;;9.43;77.76;93972.19;6163902;23;20161;-85
2023/11/02 02:10:22;;;;;;;1.90;1.80;;;;;;;9.45;77.42;93967.59;6163271;23;20171;-88
2023/11/02 02:13:23;;;;;;;3.67;1.77;;;;;;;9.39;78.03;93971.03;6162399;23;20202;-87
2023/11/02 02:16:05;;;;;;;2.30;1.80;;;;;;;9.43;77.79;93961.91;6162309;23;20185;-88
2023/11/02 02:19:07;;;;;;;2.43;1.60;;;;;;;9.38;77.97;93954.03;6162499;23;20163;-86
2023/11/02 02:21:59;;;;;;;1.90;1.77;;;;;;;9.36;77.88;93946.53;6163220;23;20279;-87
2023/11/02 02:24:38;;;;;;;1.70;1.60;;;;;;;9.25;78.25;93947.19;6162710;23;20164;-86
2023/11/02 02:27:45;;;;;;;2.40;1.70;;;;;;;9.25;78.55;93935.13;6161068;23;20635;-87
2023/11/02 02:30:59;;;;;;;1.73;1.50;;;;;;;9.22;78.51;93933.00;6161233;23;20198;-86
2023/11/02 02:37:16;;;;;;;1.40;1.30;;;;;;;9.11;79.16;93931.09;6127077;23;20191;-88
2023/11/02 02:39:58;;;;;;;1.87;1.30;;;;;;;9.07;79.37;93935.06;6163025;23;20164;-87
2023/11/02 02:42:51;;;;;;;1.87;1.37;;;;;;;9.03;79.92;93951.91;6162545;23;20164;-86
2023/11/02 02:45:27;;;;;;;1.60;1.40;;;;;;;9.13;79.55;93948.88;6162839;23;20198;-88
2023/11/02 02:50:58;;;;;;;1.67;1.27;;;;;;;9.24;79.10;93920.72;6161416;23;20201;-87
2023/11/02 02:53:28;;;;;;;1.50;1.40;;;;;;;9.20;78.71;93908.53;6159450;23;20182;-87
2023/11/02 02:56:09;;;;;;;1.50;1.20;;;;;;;9.23;78.85;93913.25;6161449;23;20178;-88
2023/11/02 02:58:53;;;;;;;2.23;1.63;;;;;;;9.40;78.01;93900.69;6160363;23;20213;-90
2023/11/02 03:01:35;;;;;;;1.50;1.40;;;;;;;9.62;76.95;93881.31;6159691;23;20202;-85
2023/11/02 03:04:18;;;;;;;1.50;1.40;;;;;;;9.78;76.30;93854.28;6160105;23;20472;-88
2023/11/02 03:06:57;;;;;;;1.30;1.20;;;;;;;9.86;74.99;93813.63;6159139;23;20174;-87
2023/11/02 03:09:33;;;;;;;1.87;1.40;;;;;;;9.91;74.63;93802.72;6159720;23;20163;-89
2023/11/02 03:12:28;;;;;;;4.57;1.40;;;;;;;9.88;74.40;93792.88;6159033;23;20199;-89
2023/11/02 03:15:06;;;;;;;2.53;1.50;;;;;;;9.78;74.27;93780.53;6159787;23;20190;-87
2023/11/02 03:17:55;;;;;;;2.10;1.37;;;;;;;9.68;74.60;93786.16;6160691;23;20194;-88
2023/11/02 03:20:32;;;;;;;1.73;1.20;;;;;;;9.58;75.38;93798.75;6161174;23;20194;-87
2023/11/02 03:23:19;;;;;;;1.90;1.10;;;;;;;9.58;75.33;93795.38;6161051;23;20178;-87
2023/11/02 03:26:13;;;;;;;1.20;1.10;;;;;;;9.51;75.89;93779.25;6160751;23;20218;-85
2023/11/02 03:29:11;;;;;;;1.40;1.23;;;;;;;9.28;76.42;93790.94;6160930;23;20170;-89
2023/11/02 03:31:48;;;;;;;1.20;1.10;;;;;;;9.21;77.24;93800.50;6158769;23;20194;-87
2023/11/02 03:34:31;;;;;;;;;;;;;;;;;;;;;
2023/11/02 03:37:15;;;;;;;1.30;1.20;;;;;;;9.09;78.09;93791.91;6153466;23;20218;-86
2023/11/02 03:40:06;;;;;;;1.93;1.23;;;;;;;9.04;78.83;93803.81;6160958;23;20242;-86
2023/11/02 03:42:50;;;;;;;4.97;1.20;;;;;;;9.12;78.41;93791.47;6160442;23;20178;-86
2023/11/02 03:45:43;;;;;;;1.50;1.40;;;;;;;9.10;78.37;93793.47;6160826;23;20182;-88
2023/11/02 03:48:30;;;;;;;1.63;1.20;;;;;;;9.14;78.26;93778.44;6160044;23;20166;-88
2023/11/02 03:51:24;;;;;;;1.40;1.00;;;;;;;9.21;78.07;93761.19;6160545;23;20214;-87
2023/11/02 03:54:09;;;;;;;2.43;1.10;;;;;;;9.19;77.63;93737.50;6159985;23;20198;-86
2023/11/02 03:56:54;;;;;;;1.23;1.13;;;;;;;9.06;78.33;93735.84;6162487;23;20190;-85
2023/11/02 04:02:27;;;;;;;1.50;1.37;;;;;;;9.14;78.25;93727.09;6163322;23;20218;-85
2023/11/02 04:05:18;;;;;;;1.27;1.17;;;;;;;9.19;78.22;93704.13;6162560;23;20173;-85
2023/11/02 04:08:10;;;;;;;2.23;1.20;;;;;;;9.32;77.52;93680.88;6162786;23;20226;-88
2023/11/02 04:14:07;;;;;;;1.13;1.03;;;;;;;9.40;76.66;93660.06;6163238;23;20707;-86
2023/11/02 04:16:35;;;;;;;2.10;1.20;;;;;;;9.31;76.91;93651.84;6161068;23;20662;-89
2023/11/02 04:19:11;;;;;;;1.50;1.40;;;;;;;9.41;76.83;93642.84;6162748;23;20179;-88
2023/11/02 04:21:46;;;;;;;1.30;1.20;;;;;;;9.39;76.33;93630.22;6161301;23;20199;-88
2023/11/02 04:24:17;;;;;;;1.30;1.20;;;;;;;9.38;76.26;93613.25;6162392;23;20250;-90
2023/11/02 04:26:47;;;;;;;1.30;1.20;;;;;;;9.40;77.01;93613.81;6162245;23;20159;-85
2023/11/02 04:29:17;;;;;;;2.33;1.30;;;;;;;9.49;76.39;93598.88;6162189;23;20197;-86
2023/11/02 04:32:15;;;;;;;1.30;1.20;;;;;;;9.56;75.62;93579.03;6160885;23;20552;-87
2023/11/02 04:35:12;;;;;;;;;;;;;;;;;;;;;
2023/11/02 04:37:49;;;;;;;1.37;1.10;;;;;;;9.61;75.04;93538.06;6160211;23;20260;-86
2023/11/02 04:40:32;;;;;;;1.30;1.13;;;;;;;9.59;75.56;93540.84;6162364;23;20262;-86
2023/11/02 04:43:16;;;;;;;1.23;1.13;;;;;;;9.61;75.22;93538.84;6133843;23;20578;-85
2023/11/02 04:46:22;;;;;;;1.30;1.20;;;;;;;9.56;75.65;93538.72;6162514;23;20156;-86
2023/11/02 04:49:16;;;;;;;3.07;1.20;;;;;;;9.50;75.57;93554.22;6161768;23;20171;-86
2023/11/02 04:51:57;;;;;;;1.30;1.20;;;;;;;9.50;75.92;93554.22;6165001;23;20199;-86
2023/11/02 04:54:40;;;;;;;1.60;1.40;;;;;;;9.47;75.97;93552.84;6165975;23;20189;-88
2023/11/02 04:57:14;;;;;;;1.97;1.10;;;;;;;9.56;75.34;93537.94;6165151;23;20218;-86
2023/11/02 04:59:53;;;;;;;1.93;1.30;;;;;;;9.45;75.72;93531.75;6165737;23;20171;-87
2023/11/02 05:02:19;;;;;;;1.30;1.20;;;;;;;9.45;75.95;93523.25;6169896;23;20170;-85
2023/11/02 05:04:50;;;;;;;1.30;1.20;;;;;;;9.34;76.46;93506.84;6170923;23;20179;-87
2023/11/02 05:07:17;;;;;;;2.33;1.37;;;;;;;9.42;76.43;93501.41;6170326;23;20178;-86
2023/11/02 05:09:45;;;;;;;1.40;1.20;;;;;;;9.43;76.51;93490.09;6169315;23;20207;-87
2023/11/02 05:12:15;;;;;;;2.43;1.13;;;;;;;9.48;75.92;93485.09;6168835;23;20281;-86
2023/11/02 05:14:43;;;;;;;1.83;1.20;;;;;;;9.57;75.64;93470.13;6168948;23;20210;-86
2023/11/02 05:17:10;;;;;;;2.10;1.40;;;;;;;9.68;75.14;93457.28;6170152;23;20196;-86
2023/11/02 05:19:37;;;;;;;3.93;1.30;;;;;;;9.67;75.12;93442.88;6170602;23;20179;-86
2023/11/02 05:22:05;;;;;;;1.33;1.23;;;;;;;9.71;75.37;93445.78;6168797;23;20206;-87
2023/11/02 05:24:32;;;;;;;1.70;1.27;;;;;;;9.66;75.28;93451.59;6168166;23;20250;-85
2023/11/02 05:27:01;;;;;;;1.50;1.13;;;;;;;9.65;74.97;93454.38;6168261;23;20242;-86
2023/11/02 05:29:33;;;;;;;1.17;1.00;;;;;;;9.64;75.37;93453.59;6167670;23;20171;-86
2023/11/02 05:31:59;;;;;;;2.43;1.10;;;;;;;9.52;75.56;93447.69;6167988;23;20282;-84
2023/11/02 05:34:26;;;;;;;1.40;1.20;;;;;;;9.48;75.77;93458.63;6167395;23;20234;-88
2023/11/02 05:36:54;;;;;;;1.43;1.10;;;;;;;9.43;76.13;93461.84;6166177;23;20455;-88
2023/11/02 05:39:22;;;;;;;1.00;1.00;;;;;;;9.45;76.00;93452.13;6165508;23;20250;-86
2023/11/02 05:41:49;;;;;;;2.10;1.30;;;;;;;9.58;75.86;93443.44;6163581;23;20221;-88
2023/11/02 05:44:15;;;;;;;1.67;1.10;;;;;;;9.52;75.56;93445.13;6165631;23;20179;-89
2023/11/02 05:46:42;;;;;;;1.30;1.20;;;;;;;9.54;75.29;93439.75;6165549;23;20189;-87
2023/11/02 05:49:08;;;;;;;1.40;1.30;;;;;;;9.56;75.00;93437.75;6165691;23;20425;-88
2023/11/02 05:51:34;;;;;;;2.33;1.10;;;;;;;9.63;75.08;93431.47;6164667;23;20202;-87
2023/11/02 05:54:01;;;;;;;1.30;1.20;;;;;;;9.72;74.64;93426.81;6164594;23;20186;-85
2023/11/02 05:56:31;;;;;;;1.57;1.30;;;;;;;9.82;74.29;93405.66;6163641;23;20187;-86
2023/11/02 05:58:58;;;;;;;2.57;1.20;;;;;;;9.83;74.02;93384.88;6164758;23;20201;-85
2023/11/02 06:01:24;;;;;;;1.50;1.03;;;;;;;9.79;73.41;93368.38;6163218;23;20259;-85
2023/11/02 06:03:51;;;;;;;1.27;1.10;;;;;;;9.74;73.96;93357.22;6164588;23;20179;-86
2023/11/02 06:06:17;;;;;;;1.33;1.20;;;;;;;9.57;73.89;93346.84;6162378;23;20601;-86
2023/11/02 06:08:44;;;;;;;1.40;1.10;;;;;;;9.60;73.94;93342.03;6163589;23;20182;-84
2023/11/02 06:11:10;;;;;;;3.03;1.20;;;;;;;9.68;74.37;93348.59;6162097;23;20230;-85
2023/11/02 06:13:38;;;;;;;1.57;1.20;;;;;;;9.69;74.11;93342.47;6164119;23;20182;-88
2023/11/02 06:16:05;;;;;;;3.00;1.10;;;;;;;9.63;73.95;93326.16;6163796;23;20206;-87
2023/11/02 06:18:32;;;;;;;2.70;1.00;;;;;;;9.67;73.74;93332.41;6167920;23;20198;-86
2023/11/02 06:20:58;;;;;;;2.60;1.07;;;;;;;9.73;73.75;93319.69;6169978;23;20222;-85
2023/11/02 06:23:24;;;;;;;1.50;1.07;;;;;;;9.74;73.77;93309.19;6170000;23;20171;-87
2023/11/02 06:25:51;;;;;;;1.53;1.10;;;;;;;9.75;72.90;93289.41;6169719;23;20525;-85
2023/11/02 06:28:19;;;;;;;3.10;1.30;;;;;;;9.77;72.98;93274.53;6169471;23;20171;-86
2023/11/02 06:30:47;;;;;;;1.27;1.17;;;;;;;9.72;73.05;93262.38;6166794;23;20249;-86
2023/11/02 06:33:25;;;;;;;1.40;1.30;;;;;;;9.70;73.23;93270.31;6167259;23;20179;-87
2023/11/02 06:35:51;;;;;;;1.80;1.30;;;;;;;9.75;73.18;93261.13;6167666;23;20167;-86
2023/11/02 06:38:21;;;;;;;1.17;1.10;;;;;;;9.73;73.39;93245.16;6167524;23;20198;-86
2023/11/02 06:40:48;;;;;;;2.10;1.60;;;;;;;9.76;73.57;93248.06;6167054;23;20199;-88
2023/11/02 06:43:14;;;;;;;2.00;1.50;;;;;;;9.80;73.46;93249.19;6161731;23;20178;-87
2023/11/02 06:45:41;;;;;;;1.30;1.20;;;;;;;9.70;73.00;93203.50;6161375;23;20630;-85
2023/11/02 06:48:11;;;;;;;1.80;1.43;;;;;;;9.74;73.03;93201.25;6164870;23;20175;-86
2023/11/02 06:50:38;;;;;;;2.93;2.13;;;;;;;9.82;72.74;93180.31;6164925;23;20208;-85
2023/11/02 06:53:04;;;;;;;3.60;2.60;;;;;;;9.79;72.49;93180.03;6164010;23;20187;-86
2023/11/02 06:55:31;;;;;;;1.40;1.23;;;;;;;9.78;72.24;93150.19;6163971;23;20178;-86
2023/11/02 06:57:57;;;;;;;1.50;1.20;;;;;;;9.83;72.36;93145.13;6164154;23;20194;-85
2023/11/02 07:00:24;;;;;;;1.37;1.10;;;;;;;9.86;72.35;93152.38;6162354;23;20273;-85
2023/11/02 07:02:50;;;;;;;1.73;1.20;;;;;;;9.77;72.11;93153.78;6162526;23;20210;-88
2023/11/02 07:05:18;;;;;;;1.40;1.30;;;;;;;9.85;72.29;93173.94;6165056;23;20185;-88
2023/11/02 07:07:49;;;;;;;4.10;1.40;;;;;;;9.93;71.58;93158.94;6164078;23;20175;-86
2023/11/02 07:10:15;;;;;;;1.20;1.10;;;;;;;10.00;71.51;93153.66;6163403;23;20258;-86
2023/11/02 07:12:42;;;;;;;2.90;1.20;;;;;;;10.06;71.57;93170.72;6163554;23;20179;-87
2023/11/02 07:15:10;;;;;;;2.03;1.10;;;;;;;10.03;71.42;93163.47;6161406;23;20492;-85
2023/11/02 07:17:37;;;;;;;1.80;1.50;;;;;;;10.11;71.38;93170.81;6162468;23;20804;-86
2023/11/02 07:20:05;;;;;;;1.47;1.33;;;;;;;10.20;70.61;93130.09;6162122;23;20178;-86
2023/11/02 07:22:33;;;;;;;1.30;1.20;;;;;;;10.13;70.83;93114.78;6163025;23;20229;-87
2023/11/02 07:25:00;;;;;;;2.07;1.30;;;;;;;10.07;70.83;93107.22;6160721;23;20664;-86
2023/11/02 07:27:28;;;;;;;1.97;1.77;;;;;;;10.14;71.03;93107.88;6160571;23;20182;-85
2023/11/02 07:29:54;;;;;;;5.70;1.47;;;;;;;10.22;70.71;93105.69;6161715;23;20182;-86
2023/11/02 07:32:21;;;;;;;1.60;1.10;;;;;;;10.13;70.70;93093.44;6162626;23;20175;-85
2023/11/02 07:34:47;;;;;;;1.20;1.10;;;;;;;10.07;71.33;93110.56;6161087;23;20527;-85
2023/11/02 07:37:14;;;;;;;2.27;1.23;;;;;;;10.18;71.34;93125.16;6161831;23;20175;-86
2023/11/02 07:39:44;;;;;;;1.83;1.40;;;;;;;10.25;71.17;93132.72;6161120;23;20170;-86
2023/11/02 07:42:11;;;;;;;4.27;1.40;;;;;;;10.44;71.31;93133.25;6160657;23;20538;-86
2023/11/02 07:44:37;;;;;;;4.23;1.60;;;;;;;10.42;71.30;93118.06;6159031;23;20655;-86
2023/11/02 07:47:04;;;;;;;1.30;1.20;;;;;;;10.41;71.19;93116.50;6158834;23;20183;-84
2023/11/02 07:49:31;;;;;;;1.27;1.17;;;;;;;10.37;70.92;93121.38;6159286;23;20175;-86
2023/11/02 07:51:57;;;;;;;1.20;0.90;;;;;;;10.36;71.11;93127.53;6158139;23;20206;-85
2023/11/02 07:54:23;;;;;;;1.27;1.17;;;;;;;10.29;71.63;93132.03;6158110;23;20194;-86
2023/11/02 07:56:51;;;;;;;1.43;1.10;;;;;;;10.33;71.68;93119.50;6157625;23;20638;-85
2023/11/02 07:59:18;;;;;;;1.83;1.33;;;;;;;10.35;70.83;93086.59;6157181;23;20199;-85
2023/11/02 08:01:44;;;;;;;1.17;1.07;;;;;;;10.32;71.14;93082.72;6157557;23;20195;-85
2023/11/02 08:04:11;;;;;;;1.47;1.37;;;;;;;10.32;71.30;93098.13;6157697;23;20182;-86
2023/11/02 08:06:37;;;;;;;1.33;1.23;;;;;;;10.35;71.25;93105.38;6156935;23;20206;-86
2023/11/02 08:09:04;;;;;;;1.77;1.50;;;;;;;10.45;70.81;93096.25;6159484;23;20175;-86
2023/11/02 08:11:38;;;;;;;3.03;1.17;;;;;;;10.46;70.80;93067.72;6160707;23;20282;-86
2023/11/02 08:14:06;;;;;;;1.73;1.40;;;;;;;10.55;71.10;93075.81;6158821;23;20171;-86
2023/11/02 08:16:35;;;;;;;2.53;1.30;;;;;;;10.52;70.46;93059.06;6156862;23;20175;-85
2023/11/02 08:19:02;;;;;;;2.63;1.30;;;;;;;10.42;70.81;93063.28;6157117;23;20195;-84
2023/11/02 08:21:28;;;;;;;1.53;1.20;;;;;;;10.48;70.77;93059.75;6158296;23;20213;-86
2023/11/02 08:23:55;;;;;;;3.33;1.20;;;;;;;10.59;70.45;93054.50;6158611;23;20181;-86
2023/11/02 08:26:21;;;;;;;1.20;1.10;;;;;;;10.77;69.75;93045.72;6158898;23;20190;-87
2023/11/02 08:28:51;;;;;;;1.77;1.10;;;;;;;10.93;69.73;93044.09;6158297;23;20194;-86
2023/11/02 08:31:24;;;;;;;1.30;1.20;;;;;;;11.03;69.45;93044.19;6160457;23;20198;-87
2023/11/02 08:33:50;;;;;;;2.97;1.30;;;;;;;11.04;69.19;93023.38;6171838;23;20167;-87
2023/11/02 08:36:17;;;;;;;3.03;1.40;;;;;;;11.12;68.93;93009.28;6171339;23;20174;-87
2023/11/02 08:38:43;;;;;;;2.73;1.30;;;;;;;11.14;68.75;92996.97;6168727;23;20246;-87
2023/11/02 08:41:17;;;;;;;7.57;6.60;;;;;;;11.25;68.78;93000.41;6168496;23;20207;-85
2023/11/02 08:43:46;;;;;;;8.13;5.70;;;;;;;11.33;68.40;92995.59;6169997;23;20170;-86
2023/11/02 08:46:16;;;;;;;2.57;2.30;;;;;;;11.21;68.38;92984.66;6170064;23;20179;-87
2023/11/02 08:48:44;;;;;;;2.40;1.43;;;;;;;11.20;69.04;93011.41;6169003;23;20583;-88
2023/11/02 08:51:11;;;;;;;3.23;1.40;;;;;;;11.17;68.90;92978.41;6168825;23;20201;-87
2023/11/02 08:53:38;;;;;;;1.53;1.43;;;;;;;11.20;69.00;92984.88;6167981;23;20183;-86
2023/11/02 08:56:05;;;;;;;1.87;1.50;;;;;;;11.39;68.75;92996.41;6167706;23;20503;-86
2023/11/02 08:58:32;;;;;;;4.80;1.43;;;;;;;11.52;67.95;92952.22;6168520;23;20195;-87
2023/11/02 09:01:01;;;;;;;4.47;1.60;;;;;;;11.50;67.77;92912.25;6168752;23;20195;-87
2023/11/02 09:03:29;;;;;;;2.17;1.40;;;;;;;11.44;67.78;92898.56;6168596;23;20174;-86
2023/11/02 09:05:57;;;;;;;2.57;1.60;;;;;;;11.45;68.14;92905.25;6171082;23;20487;-86
2023/11/02 09:08:23;;;;;;;2.27;1.60;;;;;;;11.43;68.14;92908.09;6171627;23;20196;-87
2023/11/02 09:10:49;;;;;;;2.13;1.50;;;;;;;11.50;67.81;92904.53;6168756;23;20217;-85
2023/11/02 09:13:16;;;;;;;4.07;1.60;;;;;;;11.52;67.89;92916.13;6170723;23;20185;-87
2023/11/02 09:15:42;;;;;;;6.23;2.67;;;;;;;11.52;67.91;92903.25;6169856;23;20185;-88
2023/11/02 09:18:09;;;;;;;2.00;1.40;;;;;;;11.55;68.43;92925.16;6168248;23;20194;-88
2023/11/02 09:20:35;;;;;;;1.83;1.50;;;;;;;11.65;67.80;92912.34;6169566;23;20199;-89
2023/11/02 09:23:03;;;;;;;2.70;1.80;;;;;;;11.69;67.78;92898.72;6168885;23;20175;-86
2023/11/02 09:25:30;;;;;;;1.70;1.50;;;;;;;11.75;66.83;92887.41;6167246;23;20263;-87
2023/11/02 09:27:56;;;;;;;4.87;1.30;;;;;;;11.84;66.77;92881.81;6167238;23;20191;-86
2023/11/02 09:30:23;;;;;;;1.90;1.70;;;;;;;11.83;66.39;92875.09;6167413;23;20534;-87
2023/11/02 09:32:58;;;;;;;4.33;1.47;;;;;;;11.81;66.70;92872.78;6167849;23;20539;-87
2023/11/02 09:35:25;;;;;;;2.10;1.50;;;;;;;11.89;67.04;92877.47;6166336;23;20171;-87
2023/11/02 09:37:51;;;;;;;2.90;1.70;;;;;;;11.99;66.63;92869.00;6165792;23;20787;-88
2023/11/02 09:40:20;;;;;;;1.87;1.40;;;;;;;12.05;66.76;92855.88;6165624;23;20558;-88
2023/11/02 09:42:46;;;;;;;1.70;1.50;;;;;;;12.08;66.57;92849.44;6165751;23;20214;-87
2023/11/02 09:45:16;;;;;;;4.47;1.63;;;;;;;12.17;66.47;92849.72;6165201;23;20179;-86
2023/11/02 09:47:49;;;;;;;1.60;1.50;;;;;;;12.21;66.55;92838.66;6164841;23;20190;-87
2023/11/02 09:50:21;;;;;;;2.50;1.50;;;;;;;12.26;66.33;92838.66;6164760;23;20217;-87
2023/11/02 09:53:01;;;;;;;22.60;20.20;;;;;;;12.37;66.76;92867.84;6163053;23;20452;-86
2023/11/02 09:55:38;;;;;;;9.47;4.30;;;;;;;12.45;66.35;92826.84;6165728;23;20162;-87
2023/11/02 09:58:17;;;;;;;4.43;1.90;;;;;;;12.45;65.81;92803.63;6165609;23;20618;-86
2023/11/02 10:00:47;;;;;;;1.97;1.50;;;;;;;12.51;65.61;92798.47;6166029;23;20195;-87
2023/11/02 10:03:21;;;;;;;2.80;1.50;;;;;;;12.53;66.25;92802.34;6165821;23;20226;-86
2023/11/02 10:05:51;;;;;;;1.67;1.30;;;;;;;12.55;65.85;92797.69;6167067;23;20261;-86
2023/11/02 10:08:17;;;;;;;1.93;1.60;;;;;;;12.59;65.41;92779.91;6166885;23;20714;-86
2023/11/02 10:10:46;;;;;;;2.23;1.40;;;;;;;12.63;65.65;92783.50;6164882;23;20191;-87
2023/11/02 10:13:17;;;;;;;3.23;1.57;;;;;;;12.66;66.02;92788.16;6165579;23;20189;-87
2023/11/02 10:15:53;;;;;;;4.70;1.77;;;;;;;12.68;65.23;92761.06;6164151;23;20186;-86
2023/11/02 10:18:22;;;;;;;4.83;1.70;;;;;;;12.75;65.68;92771.13;6164545;23;20163;-87
2023/11/02 10:20:54;;;;;;;2.73;1.53;;;;;;;12.85;65.45;92760.03;6162588;23;20233;-86
2023/11/02 10:23:21;;;;;;;2.93;1.70;;;;;;;12.84;65.61;92746.34;6163620;23;20159;-86
2023/11/02 10:25:50;;;;;;;2.10;1.80;;;;;;;12.78;65.35;92735.25;6162420;23;20185;-88
2023/11/02 10:28:24;;;;;;;4.40;1.67;;;;;;;12.76;65.83;92737.31;6160132;23;20170;-86
2023/11/02 10:30:58;;;;;;;2.93;1.97;;;;;;;12.82;65.90;92722.59;6156531;23;20216;-86
2023/11/02 10:33:34;;;;;;;2.63;1.80;;;;;;;12.87;65.68;92708.91;6157914;23;20603;-86
2023/11/02 10:36:05;;;;;;;5.27;2.00;;;;;;;12.89;65.48;92688.78;6157580;23;20213;-86
2023/11/02 10:38:33;;;;;;;5.77;2.13;;;;;;;12.91;65.23;92679.69;6156723;23;20191;-87
2023/11/02 10:41:17;;;;;;;3.77;2.00;;;;;;;12.91;65.29;92682.28;6157721;23;20198;-86
2023/11/02 10:43:52;;;;;;;3.43;1.57;;;;;;;12.93;64.88;92658.78;6160202;23;20163;-86
2023/11/02 10:46:23;;;;;;;2.27;1.67;;;;;;;12.90;64.79;92660.06;6160491;23;20193;-86
2023/11/02 10:48:56;;;;;;;2.27;2.00;;;;;;;12.89;64.70;92665.53;6160538;23;20225;-89
2023/11/02 10:51:25;;;;;;;5.07;2.07;;;;;;;13.00;64.86;92672.97;6161323;23;20274;-86
2023/11/02 10:54:10;;;;;;;3.93;1.60;;;;;;;13.04;64.41;92650.75;6159667;23;20210;-86
2023/11/02 10:56:48;;;;;;;2.63;1.57;;;;;;;13.13;64.69;92666.47;6157858;23;20163;-86
2023/11/02 10:59:31;;;;;;;5.27;1.60;;;;;;;13.15;63.88;92661.84;6156331;23;20206;-85
2023/11/02 11:02:06;;;;;;;4.00;1.77;;;;;;;13.18;63.68;92647.63;6155315;23;20206;-87
2023/11/02 11:04:44;;;;;;;3.20;2.40;;;;;;;13.22;63.84;92625.41;6154612;23;20602;-86
2023/11/02 11:07:25;;;;;;;118.43;89.43;;;;;;;13.24;64.29;92656.94;6155759;23;20227;-87
2023/11/02 11:09:52;;;;;;;32.63;8.93;;;;;;;13.13;63.41;92589.00;6156019;23;20182;-86
2023/11/02 11:12:24;;;;;;;16.17;6.23;;;;;;;13.03;63.89;92605.31;6155241;23;20201;-86
2023/11/02 11:15:06;;;;;;;16.47;3.40;;;;;;;13.00;63.60;92592.16;6154868;23;20242;-87
2023/11/02 11:17:33;;;;;;;8.20;2.07;;;;;;;13.01;64.11;92622.88;6155021;23;20178;-86
2023/11/02 11:20:10;;;;;;;5.60;1.80;;;;;;;13.08;64.11;92625.94;6153872;23;20616;-86
2023/11/02 11:22:46;;;;;;;4.63;2.03;;;;;;;13.14;64.34;92614.56;6155358;23;20170;-87
2023/11/02 11:25:14;;;;;;;6.00;1.73;;;;;;;13.12;64.98;92639.09;6155762;23;20162;-86
2023/11/02 11:27:43;;;;;;;6.77;2.17;;;;;;;13.13;65.31;92661.31;6156296;23;20182;-86
2023/11/02 11:30:35;;;;;;;4.27;2.10;;;;;;;13.17;65.45;92688.19;6155241;23;20175;-87
2023/11/02 11:33:37;;;;;;;7.20;3.77;;;;;;;13.14;67.32;92761.00;6155943;23;20246;-87
2023/11/02 11:36:32;;;;;;;14.13;2.60;;;;;;;13.06;69.76;92846.78;6143486;23;20174;-86
2023/11/02 11:39:21;;;;;;;5.40;1.80;;;;;;;13.08;69.95;92858.38;6155155;23;20207;-86
2023/11/02 11:41:56;;;;;;;4.77;2.07;;;;;;;13.10;70.72;92882.16;6157907;23;20225;-86
2023/11/02 11:44:24;;;;;;;3.43;2.47;;;;;;;13.06;73.86;92975.94;6154611;23;20226;-85
2023/11/02 11:46:57;;;;;;;3.97;1.80;;;;;;;13.01;74.36;92973.31;6155046;23;20230;-86
2023/11/02 11:49:47;;;;;;;2.13;1.80;;;;;;;13.03;74.26;92961.72;6154805;23;20162;-86
2023/11/02 11:52:23;;;;;;;5.13;1.50;;;;;;;12.92;76.12;93011.78;6155961;23;20202;-87
2023/11/02 11:54:49;;;;;;;4.60;2.60;;;;;;;12.78;78.02;93095.91;6155746;23;20163;-86
2023/11/02 11:57:56;;;;;;;9.50;5.67;;;;;;;12.76;78.17;93108.28;6159891;23;20175;-87
2023/11/02 12:00:25;;;;;;;3.07;2.20;;;;;;;12.70;79.97;93133.28;6166081;23;20203;-89
2023/11/02 12:02:56;;;;;;;4.43;2.13;;;;;;;12.70;81.12;93202.22;6166212;23;20186;-88
2023/11/02 12:05:53;;;;;;;3.20;1.90;;;;;;;12.68;81.02;93196.53;6166100;23;20167;-88
2023/11/02 12:08:20;;;;;;;3.27;1.80;;;;;;;12.58;81.44;93209.34;6165931;23;20283;-88
2023/11/02 12:10:48;;;;;;;3.23;2.10;;;;;;;12.55;80.60;93215.00;6165933;23;20775;-86
2023/11/02 12:13:17;;;;;;;3.13;2.13;;;;;;;12.50;80.69;93230.47;6166239;23;20185;-87
2023/11/02 12:15:58;;;;;;;3.07;2.10;;;;;;;12.35;80.49;93231.88;6168423;23;20186;-86
2023/11/02 12:18:28;;;;;;;4.40;2.70;;;;;;;12.26;80.33;93248.81;6170272;23;20182;-86
2023/11/02 12:20:56;;;;;;;3.77;2.33;;;;;;;12.17;80.13;93273.50;6169539;23;20242;-89
2023/11/02 12:23:30;;;;;;;2.10;1.90;;;;;;;11.86;81.14;93307.72;6169004;23;20178;-86
2023/11/02 12:25:57;;;;;;;3.53;3.17;;;;;;;11.83;80.99;93313.34;6169092;23;20238;-87
2023/11/02 12:28:23;;;;;;;3.40;2.40;;;;;;;11.75;82.94;93338.47;6168960;23;20170;-86
2023/11/02 12:30:50;;;;;;;2.60;2.10;;;;;;;11.77;82.46;93333.09;6166627;23;20209;-88
2023/11/02 12:33:21;;;;;;;2.53;2.00;;;;;;;11.74;82.29;93323.25;6168911;23;20181;-88
2023/11/02 12:35:58;;;;;;;4.17;2.00;;;;;;;11.75;82.95;93342.84;6168032;23;20189;-87
2023/11/02 12:38:38;;;;;;;2.00;1.80;;;;;;;11.68;81.52;93319.84;6168135;23;20193;-85
2023/11/02 12:41:05;;;;;;;3.40;2.30;;;;;;;11.56;81.18;93298.53;6166419;23;20202;-89
2023/11/02 12:43:36;;;;;;;2.43;1.90;;;;;;;11.54;81.50;93299.81;6166871;23;20179;-87
2023/11/02 12:46:04;;;;;;;4.37;2.40;;;;;;;11.59;81.19;93303.22;6167331;23;20166;-86